Time;durP1;ratioP1;P1;durP2;ratioP2;P2;SDS_P1;SDS_P2;PMS_P1;PMS_P2;Temp;Humidity;BMP_temperature;BMP_pressure;BME280_temperature;BME280_humidity;BME280_pressure;Samples;Min_cycle;Max_cycle;Signal;HPM_P1;HPM_P2
2021/01/25 14:43:38;;;;;;;16.42;8.32;;;9.80;84.80;;;;;;4990830;28;20364;-85
2021/01/25 14:46:04;;;;;;;14.82;8.13;;;10.40;83.90;;;;;;4991035;28;20108;-85
2021/01/25 14:48:29;;;;;;;16.65;8.48;;;10.50;83.90;;;;;;4990729;28;20539;-87
2021/01/25 14:51:05;;;;;;;12.27;7.45;;;10.60;83.90;;;;;;4972350;28;20042;-84
2021/01/25 14:53:31;;;;;;;21.35;8.57;;;10.70;83.70;;;;;;4969344;28;20035;-88
2021/01/25 14:56:00;;;;;;;11.38;7.95;;;10.80;83.40;;;;;;4971483;28;20023;-84
2021/01/25 14:58:26;;;;;;;19.90;10.15;;;10.80;83.20;;;;;;4970099;28;20129;-83
2021/01/25 15:00:56;;;;;;;14.80;7.03;;;10.90;83.20;;;;;;4972119;28;20051;-89
2021/01/25 15:03:23;;;;;;;12.98;6.93;;;11.00;83.00;;;;;;4972837;28;20085;-87
2021/01/25 15:05:48;;;;;;;11.55;6.32;;;11.00;82.90;;;;;;4970912;28;20020;-89
2021/01/25 15:08:14;;;;;;;10.52;6.45;;;11.00;82.60;;;;;;4971128;28;20039;-84
2021/01/25 15:10:40;;;;;;;8.07;5.63;;;11.00;82.50;;;;;;4967599;28;20023;-82
2021/01/25 15:13:08;;;;;;;12.60;5.35;;;11.10;82.40;;;;;;4974202;28;20043;-83
2021/01/25 15:15:34;;;;;;;9.60;5.60;;;11.10;82.20;;;;;;4970746;28;20029;-86
2021/01/25 15:18:00;;;;;;;9.32;5.25;;;11.10;82.20;;;;;;4970257;28;20102;-85
2021/01/25 15:20:30;;;;;;;11.70;6.38;;;11.10;82.10;;;;;;4971732;28;20027;-90
2021/01/25 15:23:03;;;;;;;8.38;5.53;;;11.10;82.10;;;;;;4973348;28;20038;-85
2021/01/25 15:25:30;;;;;;;10.52;5.63;;;11.10;82.00;;;;;;4959797;28;20035;-87
2021/01/25 15:27:56;;;;;;;11.50;5.63;;;11.10;82.00;;;;;;4970714;28;20051;-87
2021/01/25 15:30:25;;;;;;;10.90;5.72;;;11.10;82.00;;;;;;4970609;28;20023;-83
2021/01/25 15:32:50;;;;;;;13.02;5.60;;;11.10;82.00;;;;;;4960128;28;20051;-87
2021/01/25 15:35:17;;;;;;;8.60;5.13;;;11.10;82.00;;;;;;4962508;28;20485;-86
2021/01/25 15:37:43;;;;;;;9.77;4.95;;;11.10;82.10;;;;;;4959569;28;20027;-88
2021/01/25 15:40:09;;;;;;;13.40;6.15;;;11.10;82.10;;;;;;4962103;28;20110;-91
2021/01/25 15:42:36;;;;;;;11.68;5.65;;;11.00;82.00;;;;;;4954613;28;20083;-87
2021/01/25 15:45:03;;;;;;;8.15;4.70;;;11.00;82.20;;;;;;4939168;29;20024;-86
2021/01/25 15:47:29;;;;;;;9.38;5.70;;;11.00;82.20;;;;;;4970047;28;20028;-88
2021/01/25 15:49:55;;;;;;;7.53;4.97;;;11.00;82.20;;;;;;4938917;29;20060;-84
2021/01/25 15:52:21;;;;;;;9.52;5.35;;;11.00;82.10;;;;;;4939280;29;20044;-88
2021/01/25 15:54:49;;;;;;;7.20;5.15;;;11.00;82.20;;;;;;4939469;29;20373;-87
2021/01/25 15:57:15;;;;;;;11.82;5.55;;;10.90;82.40;;;;;;4939025;29;20030;-89
2021/01/25 15:59:43;;;;;;;8.57;4.50;;;10.80;82.40;;;;;;4939349;28;20032;-88
2021/01/25 16:02:09;;;;;;;8.25;5.10;;;10.80;82.70;;;;;;4939221;29;20110;-87
2021/01/25 16:04:36;;;;;;;10.55;6.18;;;10.80;82.70;;;;;;4937265;29;20035;-86
2021/01/25 16:07:04;;;;;;;7.97;5.30;;;10.80;82.90;;;;;;4939086;29;20027;-89
2021/01/25 16:09:35;;;;;;;9.05;5.70;;;10.70;83.70;;;;;;4939199;28;20024;-87
2021/01/25 16:12:00;;;;;;;11.23;5.75;;;10.70;83.20;;;;;;4944308;29;20047;-86
2021/01/25 16:14:26;;;;;;;10.60;5.95;;;10.70;83.30;;;;;;4957829;28;20051;-86
2021/01/25 16:16:52;;;;;;;12.45;6.63;;;10.70;83.30;;;;;;4955047;28;20103;-84
2021/01/25 16:19:18;;;;;;;10.77;6.93;;;10.70;83.40;;;;;;4946785;28;20025;-82
2021/01/25 16:21:44;;;;;;;9.88;6.50;;;10.60;83.70;;;;;;4945722;29;20031;-86
2021/01/25 16:24:15;;;;;;;10.60;6.57;;;10.70;83.90;;;;;;4956868;28;20489;-84
2021/01/25 16:26:43;;;;;;;10.15;6.18;;;10.70;83.90;;;;;;4957258;28;20102;-88
2021/01/25 16:29:10;;;;;;;8.98;5.82;;;10.60;83.70;;;;;;4948825;28;20019;-89
2021/01/25 16:31:36;;;;;;;9.45;5.47;;;10.70;83.80;;;;;;4945698;29;20501;-89
2021/01/25 16:34:02;;;;;;;10.18;6.43;;;10.70;83.70;;;;;;4948941;29;20031;-91
2021/01/25 16:36:28;;;;;;;11.18;6.15;;;10.70;83.70;;;;;;4949013;29;20046;-82
2021/01/25 16:38:54;;;;;;;10.60;6.75;;;10.60;83.70;;;;;;4950511;29;20465;-86
2021/01/25 16:41:20;;;;;;;11.90;7.63;;;10.70;83.70;;;;;;4955974;28;20432;-87
2021/01/25 16:43:46;;;;;;;16.48;8.80;;;10.60;83.80;;;;;;4947002;28;20044;-87
2021/01/25 16:46:12;;;;;;;13.48;9.57;;;10.60;84.00;;;;;;4947713;28;20034;-84
2021/01/25 16:48:38;;;;;;;18.33;10.32;;;10.60;84.50;;;;;;4948688;29;20361;-83
2021/01/25 16:51:07;;;;;;;16.08;10.02;;;10.50;84.00;;;;;;4948604;29;20078;-80
2021/01/25 16:53:33;;;;;;;15.57;9.95;;;10.50;84.10;;;;;;4946007;29;20036;-86
2021/01/25 16:55:58;;;;;;;16.02;10.20;;;10.50;84.10;;;;;;4944673;29;20030;-88
2021/01/25 16:58:26;;;;;;;23.88;11.60;;;10.50;84.10;;;;;;4947696;28;20473;-84
2021/01/25 17:00:56;;;;;;;19.40;9.88;;;10.50;84.10;;;;;;4946242;29;20035;-83
2021/01/25 17:03:22;;;;;;;14.98;10.68;;;10.40;84.10;;;;;;4956138;28;20034;-88
2021/01/25 17:05:48;;;;;;;18.38;10.93;;;10.40;84.20;;;;;;4956544;28;20098;-84
2021/01/25 17:08:24;;;;;;;19.98;12.00;;;10.40;84.20;;;;;;4957099;28;20046;-88
2021/01/25 17:10:49;;;;;;;22.98;11.38;;;10.40;84.40;;;;;;4955349;29;20055;-85
2021/01/25 17:13:15;;;;;;;20.08;12.02;;;10.30;84.30;;;;;;4948478;28;20070;-83
2021/01/25 17:15:41;;;;;;;20.27;11.77;;;10.30;84.30;;;;;;4949301;29;20026;-83
2021/01/25 17:18:07;;;;;;;21.83;12.75;;;10.30;84.50;;;;;;4946994;28;20152;-82
2021/01/25 17:20:33;;;;;;;20.88;12.77;;;10.30;84.60;;;;;;4945779;28;20556;-84
2021/01/25 17:22:59;;;;;;;21.88;12.95;;;10.30;84.50;;;;;;4946276;28;20027;-85
2021/01/25 17:25:25;;;;;;;19.40;12.38;;;10.20;84.60;;;;;;4945829;28;20027;-87
2021/01/25 17:27:50;;;;;;;29.23;12.55;;;10.30;84.70;;;;;;4955554;28;20387;-88
2021/01/25 17:30:22;;;;;;;22.25;13.45;;;10.20;84.60;;;;;;4954973;28;20533;-82
2021/01/25 17:32:49;;;;;;;19.27;12.60;;;10.20;84.80;;;;;;4946784;28;20122;-87
2021/01/25 17:35:17;;;;;;;17.48;11.05;;;10.20;84.70;;;;;;4975924;28;20027;-88
2021/01/25 17:37:43;;;;;;;18.30;11.18;;;10.20;84.80;;;;;;4952767;29;20023;-88
2021/01/25 17:40:10;;;;;;;17.63;11.50;;;10.20;84.90;;;;;;4957842;28;20047;-87
2021/01/25 17:42:37;;;;;;;21.42;11.25;;;10.10;84.90;;;;;;4955597;28;20051;-89
2021/01/25 17:45:05;;;;;;;20.50;12.05;;;10.20;84.90;;;;;;4952384;29;20470;-89
2021/01/25 17:47:32;;;;;;;22.73;11.85;;;10.20;84.90;;;;;;4955343;29;20466;-85
2021/01/25 17:49:58;;;;;;;20.45;12.52;;;10.10;84.90;;;;;;4937180;29;20041;-88
2021/01/25 17:52:25;;;;;;;21.98;12.85;;;10.10;85.00;;;;;;4936546;29;20130;-88
2021/01/25 17:54:51;;;;;;;17.50;10.52;;;10.10;85.10;;;;;;4937021;29;20028;-89
2021/01/25 17:57:17;;;;;;;21.35;10.82;;;10.20;85.20;;;;;;4936637;29;20042;-87
2021/01/25 17:59:43;;;;;;;22.95;12.57;;;10.20;85.20;;;;;;4936683;29;20092;-89
2021/01/25 18:02:09;;;;;;;19.50;11.95;;;10.20;85.10;;;;;;4937031;29;20434;-87
2021/01/25 18:04:34;;;;;;;22.75;11.93;;;10.20;85.10;;;;;;4937336;29;20078;-88
2021/01/25 18:07:00;;;;;;;17.08;11.10;;;10.20;85.20;;;;;;4936773;29;20066;-90
2021/01/25 18:09:26;;;;;;;21.13;11.60;;;10.10;85.00;;;;;;4936591;29;20111;-88
2021/01/25 18:11:51;;;;;;;18.55;10.75;;;10.20;85.10;;;;;;4936470;29;20039;-89
2021/01/25 18:14:17;;;;;;;20.25;10.90;;;10.20;85.10;;;;;;4937237;29;20510;-87
2021/01/25 18:16:44;;;;;;;21.10;11.93;;;10.20;85.50;;;;;;4934019;28;20048;-81
2021/01/25 18:19:10;;;;;;;20.05;12.90;;;10.20;84.90;;;;;;4936330;29;20040;-87
2021/01/25 18:21:36;;;;;;;20.75;13.00;;;10.20;84.80;;;;;;4937125;29;20394;-84
2021/01/25 18:24:02;;;;;;;21.80;13.02;;;10.10;84.90;;;;;;4937059;29;20027;-88
2021/01/25 18:26:29;;;;;;;22.40;12.35;;;10.10;85.60;;;;;;4936441;29;20028;-87
2021/01/25 18:28:55;;;;;;;21.80;13.35;;;10.10;84.90;;;;;;4936818;29;20258;-88
2021/01/25 18:31:31;;;;;;;21.58;11.98;;;10.10;85.00;;;;;;4936900;29;20107;-88
2021/01/25 18:33:58;;;;;;;18.85;11.75;;;10.10;85.00;;;;;;4936590;29;20047;-87
2021/01/25 18:36:24;;;;;;;24.63;12.13;;;10.10;85.20;;;;;;4936678;29;20398;-86
2021/01/25 18:38:50;;;;;;;16.83;10.65;;;10.10;85.20;;;;;;4936435;29;20042;-85
2021/01/25 18:41:16;;;;;;;21.73;11.05;;;10.10;85.30;;;;;;4936516;29;20363;-88
2021/01/25 18:43:42;;;;;;;18.02;10.23;;;10.10;85.30;;;;;;4936793;29;20381;-84
2021/01/25 18:46:08;;;;;;;14.60;8.60;;;10.10;85.50;;;;;;4936318;29;20032;-86
2021/01/25 18:48:34;;;;;;;12.80;8.27;;;10.10;85.70;;;;;;4936120;29;20036;-88
2021/01/25 18:51:00;;;;;;;12.52;8.18;;;10.10;85.70;;;;;;4935874;29;20031;-86
2021/01/25 18:53:35;;;;;;;15.57;9.15;;;10.10;85.70;;;;;;4936190;29;20036;-85
2021/01/25 18:56:01;;;;;;;11.02;7.63;;;10.10;85.70;;;;;;4936440;29;20039;-85
2021/01/25 18:58:27;;;;;;;14.30;7.35;;;10.10;85.90;;;;;;4936283;29;20061;-86
2021/01/25 19:00:53;;;;;;;12.90;8.25;;;10.10;85.80;;;;;;4936247;29;20031;-87
2021/01/25 19:03:20;;;;;;;15.07;7.40;;;10.10;85.80;;;;;;4936714;29;20028;-88
2021/01/25 19:05:46;;;;;;;11.57;7.90;;;10.10;85.80;;;;;;4936557;29;20063;-87
2021/01/25 19:08:12;;;;;;;9.57;6.95;;;10.10;85.80;;;;;;4936359;29;20115;-90
2021/01/25 19:10:38;;;;;;;13.55;7.60;;;10.20;85.90;;;;;;4935033;29;20122;-88
2021/01/25 19:13:05;;;;;;;13.45;7.95;;;10.20;85.90;;;;;;4935949;29;20119;-88
2021/01/25 19:15:34;;;;;;;11.40;7.68;;;10.20;86.00;;;;;;4934919;29;20470;-90
2021/01/25 19:18:01;;;;;;;7.38;5.68;;;10.20;86.60;;;;;;4936507;29;20020;-88
2021/01/25 19:20:43;;;;;;;9.45;5.93;;;10.20;86.10;;;;;;4940687;29;20031;-89
2021/01/25 19:23:10;;;;;;;10.95;6.80;;;10.20;85.90;;;;;;4939539;29;20028;-88
2021/01/25 19:25:38;;;;;;;9.15;6.43;;;10.20;85.90;;;;;;4939852;29;20042;-89
2021/01/25 19:28:05;;;;;;;13.13;6.15;;;10.20;85.90;;;;;;4939819;29;20023;-89
2021/01/25 19:30:32;;;;;;;10.00;6.53;;;10.20;85.90;;;;;;4940692;29;20100;-89
2021/01/25 19:32:58;;;;;;;10.10;6.45;;;10.20;86.00;;;;;;4940281;29;20529;-83
2021/01/25 19:35:26;;;;;;;10.27;6.40;;;10.20;86.00;;;;;;4941014;29;20028;-90
2021/01/25 19:37:53;;;;;;;9.70;6.38;;;10.20;86.10;;;;;;4942460;29;20508;-92
2021/01/25 19:40:23;;;;;;;12.00;6.60;;;10.20;86.00;;;;;;4941552;29;20393;-88
2021/01/25 19:42:50;;;;;;;14.73;8.43;;;10.20;86.00;;;;;;4939656;29;20055;-88
2021/01/25 19:45:20;;;;;;;8.75;6.40;;;10.20;86.00;;;;;;4939658;29;20437;-88
2021/01/25 19:47:46;;;;;;;10.20;7.00;;;10.20;85.90;;;;;;4938995;29;20110;-88
2021/01/25 19:50:13;;;;;;;13.95;6.78;;;10.30;86.10;;;;;;4939060;29;20481;-89
2021/01/25 19:52:39;;;;;;;11.45;7.22;;;10.30;86.00;;;;;;4939040;29;20035;-89
2021/01/25 19:55:06;;;;;;;14.75;8.23;;;10.30;85.70;;;;;;4939547;29;20027;-86
2021/01/25 19:57:32;;;;;;;12.98;7.38;;;10.30;85.80;;;;;;4939243;29;20118;-86
2021/01/25 19:59:58;;;;;;;12.48;8.23;;;10.30;85.60;;;;;;4939095;29;20055;-87
2021/01/25 20:02:24;;;;;;;17.15;10.05;;;10.30;85.50;;;;;;4938644;29;20036;-89
2021/01/25 20:04:50;;;;;;;14.30;8.52;;;10.30;85.40;;;;;;4939414;29;20110;-89
2021/01/25 20:07:16;;;;;;;16.13;8.23;;;10.30;85.00;;;;;;4939378;29;20118;-90
2021/01/25 20:09:42;;;;;;;14.98;9.15;;;10.20;84.60;;;;;;4939360;29;20052;-88
2021/01/25 20:12:08;;;;;;;20.10;10.05;;;10.20;84.20;;;;;;4940079;29;20377;-87
2021/01/25 20:14:34;;;;;;;17.13;10.23;;;10.00;83.40;;;;;;4940059;29;20060;-81
2021/01/25 20:16:59;;;;;;;18.05;10.20;;;9.90;83.00;;;;;;4939578;29;20036;-83
2021/01/25 20:19:25;;;;;;;19.05;11.15;;;9.70;82.80;;;;;;4940341;29;20028;-86
2021/01/25 20:21:51;;;;;;;18.67;11.32;;;9.50;82.80;;;;;;4938281;29;20023;-88
2021/01/25 20:24:17;;;;;;;21.52;11.57;;;9.40;82.90;;;;;;4937204;29;20366;-85
2021/01/25 20:26:43;;;;;;;24.85;11.25;;;9.30;82.80;;;;;;4938426;29;20087;-87
2021/01/25 20:29:09;;;;;;;21.30;11.18;;;9.10;82.30;;;;;;4939050;29;20039;-87
2021/01/25 20:31:34;;;;;;;20.50;11.20;;;9.00;82.10;;;;;;4939233;29;20035;-86
2021/01/25 20:34:01;;;;;;;25.05;11.88;;;8.80;82.20;;;;;;4937520;29;20140;-92
2021/01/25 20:36:31;;;;;;;21.45;11.02;;;8.70;82.20;;;;;;4938650;29;20028;-89
2021/01/25 20:38:58;;;;;;;16.98;10.57;;;8.50;82.40;;;;;;4938953;29;20035;-88
2021/01/25 20:41:29;;;;;;;19.00;10.63;;;8.40;82.10;;;;;;4940044;29;20024;-83
2021/01/25 20:43:59;;;;;;;14.75;9.93;;;8.30;82.10;;;;;;4938540;29;20054;-88
2021/01/25 20:46:25;;;;;;;19.65;10.20;;;8.20;82.30;;;;;;4938608;29;20382;-88
2021/01/25 20:48:51;;;;;;;18.63;10.23;;;8.10;82.30;;;;;;4938030;29;20038;-86
2021/01/25 20:51:19;;;;;;;22.08;10.88;;;8.00;82.20;;;;;;4938197;29;20031;-87
2021/01/25 20:53:45;;;;;;;18.98;10.85;;;7.90;82.40;;;;;;4938503;29;20020;-90
2021/01/25 20:56:12;;;;;;;16.42;10.20;;;7.90;82.50;;;;;;4938187;29;20020;-88
2021/01/25 20:58:38;;;;;;;15.52;9.60;;;7.80;82.40;;;;;;4937893;29;20027;-87
2021/01/25 21:01:04;;;;;;;20.95;10.50;;;7.70;82.40;;;;;;4938186;29;20027;-85
2021/01/25 21:03:31;;;;;;;17.88;10.90;;;7.60;82.60;;;;;;4936909;29;20027;-84
2021/01/25 21:05:58;;;;;;;17.80;9.82;;;7.60;82.70;;;;;;4935589;29;20032;-84
2021/01/25 21:08:28;;;;;;;22.10;10.38;;;7.60;82.90;;;;;;4936931;29;20060;-79
2021/01/25 21:10:54;;;;;;;15.07;9.93;;;7.50;83.20;;;;;;4934551;29;20126;-87
2021/01/25 21:13:23;;;;;;;23.27;10.35;;;7.50;83.50;;;;;;4935992;29;20027;-85
2021/01/25 21:15:50;;;;;;;15.82;9.77;;;7.50;83.80;;;;;;4936174;29;20023;-81
2021/01/25 21:18:18;;;;;;;20.63;9.35;;;7.50;84.00;;;;;;4925609;29;20799;-86
2021/01/25 21:20:46;;;;;;;17.65;10.13;;;7.50;84.00;;;;;;4926216;29;20028;-78
2021/01/25 21:23:20;;;;;;;19.58;10.95;;;7.60;83.80;;;;;;4934996;29;20477;-86
2021/01/25 21:25:46;;;;;;;18.27;10.05;;;7.50;83.30;;;;;;4936484;29;20031;-83
2021/01/25 21:28:12;;;;;;;20.48;10.35;;;7.50;82.90;;;;;;4937457;29;20024;-88
2021/01/25 21:30:39;;;;;;;20.92;9.75;;;7.40;83.10;;;;;;4934918;29;20034;-86
2021/01/25 21:33:07;;;;;;;20.25;10.13;;;7.40;83.30;;;;;;4909894;29;20040;-80
2021/01/25 21:35:36;;;;;;;21.65;10.13;;;7.40;83.30;;;;;;4932089;29;20020;-85
2021/01/25 21:38:02;;;;;;;17.80;10.23;;;7.40;83.30;;;;;;4940022;29;20031;-83
2021/01/25 21:40:30;;;;;;;19.85;10.68;;;7.30;83.30;;;;;;4936966;29;20031;-84
2021/01/25 21:42:57;;;;;;;19.75;9.57;;;7.30;83.40;;;;;;4934779;29;20051;-83
2021/01/25 21:45:25;;;;;;;19.15;10.73;;;7.30;83.60;;;;;;4937334;29;20481;-84
2021/01/25 21:47:52;;;;;;;19.60;9.68;;;7.30;83.50;;;;;;4937883;29;20175;-81
2021/01/25 21:50:19;;;;;;;19.33;10.13;;;7.30;83.50;;;;;;4938110;23;20437;-80
2021/01/25 21:52:44;;;;;;;17.85;9.57;;;7.30;83.50;;;;;;4935760;29;20044;-80
2021/01/25 21:55:12;;;;;;;21.35;11.27;;;7.30;83.60;;;;;;4936457;29;20027;-79
2021/01/25 21:57:37;;;;;;;19.90;10.40;;;7.30;84.00;;;;;;4936239;29;20188;-80
2021/01/25 22:00:08;;;;;;;21.17;10.38;;;7.30;84.10;;;;;;4936524;29;20632;-80
2021/01/25 22:02:33;;;;;;;20.95;9.65;;;7.30;84.20;;;;;;4936829;29;20040;-80
2021/01/25 22:04:59;;;;;;;19.30;9.32;;;7.40;84.40;;;;;;4936812;29;20027;-80
2021/01/25 22:07:25;;;;;;;19.70;9.98;;;7.40;84.20;;;;;;4936705;29;20072;-80
2021/01/25 22:09:51;;;;;;;21.23;10.85;;;7.40;84.10;;;;;;4936360;29;20035;-79
2021/01/25 22:12:16;;;;;;;21.42;9.65;;;7.40;84.00;;;;;;4936575;29;20043;-80
2021/01/25 22:14:42;;;;;;;20.45;10.10;;;7.40;84.10;;;;;;4936559;29;20402;-80
2021/01/25 22:17:08;;;;;;;20.08;10.48;;;7.40;84.40;;;;;;4936014;29;20035;-80
2021/01/25 22:19:33;;;;;;;21.63;11.55;;;7.40;84.50;;;;;;4936320;29;20106;-80
2021/01/25 22:21:59;;;;;;;21.63;10.77;;;7.40;84.40;;;;;;4936321;29;20039;-80
2021/01/25 22:24:25;;;;;;;23.42;11.02;;;7.50;84.60;;;;;;4936667;29;20028;-79
2021/01/25 22:26:51;;;;;;;20.50;11.18;;;7.50;84.80;;;;;;4934535;29;20069;-79
2021/01/25 22:29:16;;;;;;;20.98;11.32;;;7.50;84.90;;;;;;4935909;29;20087;-79
2021/01/25 22:31:44;;;;;;;20.15;9.85;;;7.50;84.90;;;;;;4935663;29;20091;-80
2021/01/25 22:34:10;;;;;;;24.25;10.30;;;7.60;84.90;;;;;;4936212;29;20035;-80
2021/01/25 22:36:36;;;;;;;18.75;11.10;;;7.60;84.80;;;;;;4934474;29;20367;-80
2021/01/25 22:39:02;;;;;;;18.55;10.75;;;7.60;84.80;;;;;;4936661;29;20024;-80
2021/01/25 22:41:28;;;;;;;23.70;11.63;;;7.60;84.80;;;;;;4936074;29;20494;-79
2021/01/25 22:43:54;;;;;;;21.00;11.45;;;7.60;84.80;;;;;;4935729;29;20063;-79
2021/01/25 22:46:20;;;;;;;22.35;12.95;;;7.70;84.90;;;;;;4936456;29;20491;-79
2021/01/25 22:48:46;;;;;;;22.00;12.45;;;7.70;85.60;;;;;;4935750;29;20035;-79
2021/01/25 22:55:06;;;;;;;19.50;11.60;;;7.70;85.30;;;;;;4930754;29;20034;-79
2021/01/25 22:57:32;;;;;;;19.90;11.73;;;7.70;85.40;;;;;;4939553;29;20036;-79
2021/01/25 22:59:58;;;;;;;17.17;10.98;;;7.80;85.10;;;;;;4938809;29;20039;-79
2021/01/25 23:02:24;;;;;;;20.15;10.52;;;7.80;84.70;;;;;;4940079;29;20096;-80
2021/01/25 23:04:50;;;;;;;17.75;10.20;;;7.80;84.50;;;;;;4939824;29;20381;-80
2021/01/25 23:07:16;;;;;;;17.15;9.77;;;7.70;84.30;;;;;;4939259;29;20102;-80
2021/01/25 23:09:42;;;;;;;16.92;9.80;;;7.70;84.30;;;;;;4939493;29;20034;-80
2021/01/25 23:12:08;;;;;;;17.98;10.30;;;7.70;84.40;;;;;;4939321;29;20071;-79
2021/01/25 23:14:34;;;;;;;23.88;10.68;;;7.70;84.70;;;;;;4939283;29;20032;-79
2021/01/25 23:17:00;;;;;;;18.00;10.65;;;7.70;84.60;;;;;;4939911;29;20038;-79
2021/01/25 23:19:26;;;;;;;17.10;10.50;;;7.60;84.70;;;;;;4939827;29;20473;-80
2021/01/25 23:21:54;;;;;;;20.90;10.30;;;7.60;84.60;;;;;;4939716;29;20474;-80
2021/01/25 23:24:20;;;;;;;18.90;10.95;;;7.60;84.60;;;;;;4939881;29;20039;-80
2021/01/25 23:26:45;;;;;;;24.30;11.93;;;7.70;84.90;;;;;;4939564;29;20023;-80
2021/01/25 23:29:16;;;;;;;18.27;11.18;;;7.70;85.00;;;;;;4939327;29;20028;-80
2021/01/25 23:31:42;;;;;;;18.73;11.15;;;7.70;85.10;;;;;;4939446;29;20492;-80
2021/01/25 23:34:08;;;;;;;22.67;11.57;;;7.70;85.20;;;;;;4939668;29;20417;-80
2021/01/25 23:36:38;;;;;;;20.27;11.70;;;7.70;85.30;;;;;;4939323;29;20391;-80
2021/01/25 23:39:05;;;;;;;19.70;11.95;;;7.80;85.60;;;;;;4939432;29;20039;-80
2021/01/25 23:41:31;;;;;;;21.10;11.35;;;7.90;85.90;;;;;;4939471;29;20032;-80
2021/01/25 23:43:57;;;;;;;20.70;11.52;;;7.90;86.20;;;;;;4939677;29;20024;-80
2021/01/25 23:46:23;;;;;;;19.30;11.43;;;8.00;86.50;;;;;;4939228;29;20087;-80
2021/01/25 23:48:51;;;;;;;15.18;10.15;;;8.10;86.70;;;;;;4939195;29;20083;-80
2021/01/25 23:51:17;;;;;;;16.48;10.80;;;8.20;87.00;;;;;;4939159;29;20033;-80
2021/01/25 23:53:46;;;;;;;17.05;10.55;;;8.30;87.00;;;;;;4939412;29;20019;-80
2021/01/25 23:56:13;;;;;;;18.48;10.85;;;8.30;86.90;;;;;;4939021;29;20027;-79
2021/01/25 23:58:39;;;;;;;16.13;10.75;;;8.40;87.00;;;;;;4939359;29;20403;-84
